sensor_id;sensor_type;location;lat;lon;timestamp;temperature;humidity
23347;DHT22;36852;45.466;11.066;2023-11-21T00:00:52;11.70;99.90
23347;DHT22;36852;45.466;11.066;2023-11-21T00:03:20;11.60;99.90
23347;DHT22;36852;45.466;11.066;2023-11-21T00:05:53;11.60;99.90
23347;DHT22;36852;45.466;11.066;2023-11-21T00:08:22;11.70;99.90
23347;DHT22;36852;45.466;11.066;2023-11-21T00:10:50;11.70;99.90
23347;DHT22;36852;45.466;11.066;2023-11-21T00:13:18;11.70;99.90
23347;DHT22;36852;45.466;11.066;2023-11-21T00:15:50;11.70;99.90
23347;DHT22;36852;45.466;11.066;2023-11-21T00:18:18;11.70;99.90
23347;DHT22;36852;45.466;11.066;2023-11-21T00:20:47;11.70;99.90
23347;DHT22;36852;45.466;11.066;2023-11-21T00:23:15;11.60;99.90
23347;DHT22;36852;45.466;11.066;2023-11-21T00:25:43;11.60;99.90
23347;DHT22;36852;45.466;11.066;2023-11-21T00:28:11;11.60;99.90
23347;DHT22;36852;45.466;11.066;2023-11-21T00:30:39;11.50;99.90
23347;DHT22;36852;45.466;11.066;2023-11-21T00:33:07;11.50;99.90
23347;DHT22;36852;45.466;11.066;2023-11-21T00:35:35;11.50;99.90
23347;DHT22;36852;45.466;11.066;2023-11-21T00:38:03;11.60;99.90
23347;DHT22;36852;45.466;11.066;2023-11-21T00:40:32;11.60;99.90
23347;DHT22;36852;45.466;11.066;2023-11-21T00:43:00;11.60;99.90
23347;DHT22;36852;45.466;11.066;2023-11-21T00:45:30;11.60;99.90
23347;DHT22;36852;45.466;11.066;2023-11-21T00:47:58;11.60;99.90
23347;DHT22;36852;45.466;11.066;2023-11-21T00:50:29;11.60;99.90
23347;DHT22;36852;45.466;11.066;2023-11-21T00:52:57;11.70;99.90
23347;DHT22;36852;45.466;11.066;2023-11-21T00:55:24;11.70;99.90
23347;DHT22;36852;45.466;11.066;2023-11-21T00:57:53;11.70;99.90
23347;DHT22;36852;45.466;11.066;2023-11-21T01:00:21;11.70;99.90
23347;DHT22;36852;45.466;11.066;2023-11-21T01:02:49;11.70;99.90
23347;DHT22;36852;45.466;11.066;2023-11-21T01:05:17;11.70;99.90
23347;DHT22;36852;45.466;11.066;2023-11-21T01:07:46;11.70;99.90
23347;DHT22;36852;45.466;11.066;2023-11-21T01:10:14;11.70;99.90
23347;DHT22;36852;45.466;11.066;2023-11-21T01:12:43;11.70;99.90
23347;DHT22;36852;45.466;11.066;2023-11-21T01:15:11;11.70;99.90
23347;DHT22;36852;45.466;11.066;2023-11-21T01:17:39;11.70;99.90
23347;DHT22;36852;45.466;11.066;2023-11-21T01:20:09;11.70;99.90
23347;DHT22;36852;45.466;11.066;2023-11-21T01:22:39;11.80;99.90
23347;DHT22;36852;45.466;11.066;2023-11-21T01:25:08;11.80;99.90
23347;DHT22;36852;45.466;11.066;2023-11-21T01:27:36;11.80;99.90
23347;DHT22;36852;45.466;11.066;2023-11-21T01:30:05;11.80;99.90
23347;DHT22;36852;45.466;11.066;2023-11-21T01:32:34;11.80;99.90
23347;DHT22;36852;45.466;11.066;2023-11-21T01:35:03;11.80;99.90
23347;DHT22;36852;45.466;11.066;2023-11-21T01:37:34;11.80;99.90
23347;DHT22;36852;45.466;11.066;2023-11-21T01:40:02;11.80;99.90
23347;DHT22;36852;45.466;11.066;2023-11-21T01:42:35;11.80;99.90
23347;DHT22;36852;45.466;11.066;2023-11-21T01:45:03;11.80;99.90
23347;DHT22;36852;45.466;11.066;2023-11-21T01:47:33;11.80;99.90
23347;DHT22;36852;45.466;11.066;2023-11-21T01:50:06;11.70;99.90
23347;DHT22;36852;45.466;11.066;2023-11-21T01:52:35;11.70;99.90
23347;DHT22;36852;45.466;11.066;2023-11-21T01:55:04;11.70;99.90
23347;DHT22;36852;45.466;11.066;2023-11-21T01:57:34;11.70;99.90
23347;DHT22;36852;45.466;11.066;2023-11-21T02:00:02;11.70;99.90
23347;DHT22;36852;45.466;11.066;2023-11-21T02:02:37;11.70;99.90
23347;DHT22;36852;45.466;11.066;2023-11-21T02:05:05;11.70;99.90
23347;DHT22;36852;45.466;11.066;2023-11-21T02:07:36;11.70;99.90
23347;DHT22;36852;45.466;11.066;2023-11-21T02:10:06;11.70;99.90
23347;DHT22;36852;45.466;11.066;2023-11-21T02:12:34;11.70;99.90
23347;DHT22;36852;45.466;11.066;2023-11-21T02:15:03;11.70;99.90
23347;DHT22;36852;45.466;11.066;2023-11-21T02:17:36;11.70;99.90
23347;DHT22;36852;45.466;11.066;2023-11-21T02:20:04;11.70;99.90
23347;DHT22;36852;45.466;11.066;2023-11-21T02:22:35;11.70;99.90
23347;DHT22;36852;45.466;11.066;2023-11-21T02:25:05;11.70;99.90
23347;DHT22;36852;45.466;11.066;2023-11-21T02:27:33;11.70;99.90
23347;DHT22;36852;45.466;11.066;2023-11-21T02:30:01;11.80;99.90
23347;DHT22;36852;45.466;11.066;2023-11-21T02:32:28;11.80;99.90
23347;DHT22;36852;45.466;11.066;2023-11-21T02:34:58;11.80;99.90
23347;DHT22;36852;45.466;11.066;2023-11-21T02:37:30;11.80;99.90
23347;DHT22;36852;45.466;11.066;2023-11-21T02:39:59;11.80;99.90
23347;DHT22;36852;45.466;11.066;2023-11-21T02:42:27;11.80;99.90
23347;DHT22;36852;45.466;11.066;2023-11-21T02:44:55;11.80;99.90
23347;DHT22;36852;45.466;11.066;2023-11-21T02:47:24;11.90;99.90
23347;DHT22;36852;45.466;11.066;2023-11-21T02:49:52;11.90;99.90
23347;DHT22;36852;45.466;11.066;2023-11-21T02:52:21;11.90;99.90
23347;DHT22;36852;45.466;11.066;2023-11-21T02:54:50;11.90;99.90
23347;DHT22;36852;45.466;11.066;2023-11-21T02:57:20;11.90;99.90
23347;DHT22;36852;45.466;11.066;2023-11-21T02:59:48;11.90;99.90
23347;DHT22;36852;45.466;11.066;2023-11-21T03:02:16;11.90;99.90
23347;DHT22;36852;45.466;11.066;2023-11-21T03:04:44;11.90;99.90
23347;DHT22;36852;45.466;11.066;2023-11-21T03:07:12;11.90;99.90
23347;DHT22;36852;45.466;11.066;2023-11-21T03:09:43;11.90;99.90
23347;DHT22;36852;45.466;11.066;2023-11-21T03:12:11;11.90;99.90
23347;DHT22;36852;45.466;11.066;2023-11-21T03:14:43;11.90;99.90
23347;DHT22;36852;45.466;11.066;2023-11-21T03:17:11;11.90;99.90
23347;DHT22;36852;45.466;11.066;2023-11-21T03:19:41;11.90;99.90
23347;DHT22;36852;45.466;11.066;2023-11-21T03:22:09;11.90;99.90
23347;DHT22;36852;45.466;11.066;2023-11-21T03:24:38;11.80;99.90
23347;DHT22;36852;45.466;11.066;2023-11-21T03:27:06;11.80;99.90
23347;DHT22;36852;45.466;11.066;2023-11-21T03:29:35;11.80;99.90
23347;DHT22;36852;45.466;11.066;2023-11-21T03:32:02;11.90;99.90
23347;DHT22;36852;45.466;11.066;2023-11-21T03:34:31;11.80;99.90
23347;DHT22;36852;45.466;11.066;2023-11-21T03:37:00;11.80;99.90
23347;DHT22;36852;45.466;11.066;2023-11-21T03:39:28;11.80;99.90
23347;DHT22;36852;45.466;11.066;2023-11-21T03:41:57;11.80;99.90
23347;DHT22;36852;45.466;11.066;2023-11-21T03:44:24;11.80;99.90
23347;DHT22;36852;45.466;11.066;2023-11-21T03:46:56;11.80;99.90
23347;DHT22;36852;45.466;11.066;2023-11-21T03:49:24;11.80;99.90
23347;DHT22;36852;45.466;11.066;2023-11-21T03:51:52;11.80;99.90
23347;DHT22;36852;45.466;11.066;2023-11-21T03:54:20;11.80;99.90
23347;DHT22;36852;45.466;11.066;2023-11-21T03:56:49;11.70;99.90
23347;DHT22;36852;45.466;11.066;2023-11-21T03:59:16;11.70;99.90
23347;DHT22;36852;45.466;11.066;2023-11-21T04:01:45;11.70;99.90
23347;DHT22;36852;45.466;11.066;2023-11-21T04:04:13;11.60;99.90
23347;DHT22;36852;45.466;11.066;2023-11-21T04:06:41;11.60;99.90
23347;DHT22;36852;45.466;11.066;2023-11-21T04:09:10;11.60;99.90
23347;DHT22;36852;45.466;11.066;2023-11-21T04:11:41;11.50;99.90
23347;DHT22;36852;45.466;11.066;2023-11-21T04:14:10;11.50;99.90
23347;DHT22;36852;45.466;11.066;2023-11-21T04:16:38;11.50;99.90
23347;DHT22;36852;45.466;11.066;2023-11-21T04:19:07;11.50;99.90
23347;DHT22;36852;45.466;11.066;2023-11-21T04:21:37;11.40;99.90
23347;DHT22;36852;45.466;11.066;2023-11-21T04:24:06;11.30;99.90
23347;DHT22;36852;45.466;11.066;2023-11-21T04:26:35;11.30;99.90
23347;DHT22;36852;45.466;11.066;2023-11-21T04:29:03;11.30;99.90
23347;DHT22;36852;45.466;11.066;2023-11-21T04:31:32;11.30;99.90
23347;DHT22;36852;45.466;11.066;2023-11-21T04:34:00;11.20;99.90
23347;DHT22;36852;45.466;11.066;2023-11-21T04:36:30;11.20;99.90
23347;DHT22;36852;45.466;11.066;2023-11-21T04:39:01;11.10;99.90
23347;DHT22;36852;45.466;11.066;2023-11-21T04:41:30;11.10;99.90
23347;DHT22;36852;45.466;11.066;2023-11-21T04:43:59;11.00;99.90
23347;DHT22;36852;45.466;11.066;2023-11-21T04:46:30;11.00;99.90
23347;DHT22;36852;45.466;11.066;2023-11-21T04:48:59;11.00;99.90
23347;DHT22;36852;45.466;11.066;2023-11-21T04:51:27;11.00;99.90
23347;DHT22;36852;45.466;11.066;2023-11-21T04:53:55;11.00;99.90
23347;DHT22;36852;45.466;11.066;2023-11-21T04:56:25;11.00;99.90
23347;DHT22;36852;45.466;11.066;2023-11-21T04:58:54;11.00;99.90
23347;DHT22;36852;45.466;11.066;2023-11-21T05:01:22;11.00;99.90
23347;DHT22;36852;45.466;11.066;2023-11-21T05:03:50;11.10;99.90
23347;DHT22;36852;45.466;11.066;2023-11-21T05:06:18;11.00;99.90
23347;DHT22;36852;45.466;11.066;2023-11-21T05:08:47;11.00;99.90
23347;DHT22;36852;45.466;11.066;2023-11-21T05:11:26;11.00;99.90
23347;DHT22;36852;45.466;11.066;2023-11-21T05:13:54;11.00;99.90
23347;DHT22;36852;45.466;11.066;2023-11-21T05:16:26;11.00;99.90
23347;DHT22;36852;45.466;11.066;2023-11-21T05:18:57;11.10;99.90
23347;DHT22;36852;45.466;11.066;2023-11-21T05:21:28;11.10;99.90
23347;DHT22;36852;45.466;11.066;2023-11-21T05:23:57;11.20;99.90
23347;DHT22;36852;45.466;11.066;2023-11-21T05:26:26;11.20;99.90
23347;DHT22;36852;45.466;11.066;2023-11-21T05:28:55;11.20;99.90
23347;DHT22;36852;45.466;11.066;2023-11-21T05:31:23;11.20;99.90
23347;DHT22;36852;45.466;11.066;2023-11-21T05:33:51;11.10;99.90
23347;DHT22;36852;45.466;11.066;2023-11-21T05:36:19;11.10;99.90
23347;DHT22;36852;45.466;11.066;2023-11-21T05:38:48;11.10;99.90
23347;DHT22;36852;45.466;11.066;2023-11-21T05:41:16;11.00;99.90
23347;DHT22;36852;45.466;11.066;2023-11-21T05:43:44;11.00;99.90
23347;DHT22;36852;45.466;11.066;2023-11-21T05:46:13;11.00;99.90
23347;DHT22;36852;45.466;11.066;2023-11-21T05:48:41;11.00;99.90
23347;DHT22;36852;45.466;11.066;2023-11-21T05:51:09;11.00;99.90
23347;DHT22;36852;45.466;11.066;2023-11-21T05:53:41;11.00;99.90
23347;DHT22;36852;45.466;11.066;2023-11-21T05:56:09;11.00;99.90
23347;DHT22;36852;45.466;11.066;2023-11-21T05:58:37;11.00;99.90
23347;DHT22;36852;45.466;11.066;2023-11-21T06:01:06;11.00;99.90
23347;DHT22;36852;45.466;11.066;2023-11-21T06:03:37;11.00;99.90
23347;DHT22;36852;45.466;11.066;2023-11-21T06:06:06;11.00;99.90
23347;DHT22;36852;45.466;11.066;2023-11-21T06:08:35;11.00;99.90
23347;DHT22;36852;45.466;11.066;2023-11-21T06:11:03;11.00;99.90
23347;DHT22;36852;45.466;11.066;2023-11-21T06:13:32;11.00;99.90
23347;DHT22;36852;45.466;11.066;2023-11-21T06:16:00;10.90;99.90
23347;DHT22;36852;45.466;11.066;2023-11-21T06:18:29;10.90;99.90
23347;DHT22;36852;45.466;11.066;2023-11-21T06:20:57;10.90;99.90
23347;DHT22;36852;45.466;11.066;2023-11-21T06:23:27;10.90;99.90
23347;DHT22;36852;45.466;11.066;2023-11-21T06:25:55;10.90;99.90
23347;DHT22;36852;45.466;11.066;2023-11-21T06:28:26;11.00;99.90
23347;DHT22;36852;45.466;11.066;2023-11-21T06:30:54;11.00;99.90
23347;DHT22;36852;45.466;11.066;2023-11-21T06:33:22;11.00;99.90
23347;DHT22;36852;45.466;11.066;2023-11-21T06:35:50;11.00;99.90
23347;DHT22;36852;45.466;11.066;2023-11-21T06:38:18;11.00;99.90
23347;DHT22;36852;45.466;11.066;2023-11-21T06:40:47;11.00;99.90
23347;DHT22;36852;45.466;11.066;2023-11-21T06:43:16;11.00;99.90
23347;DHT22;36852;45.466;11.066;2023-11-21T06:45:45;11.10;99.90
23347;DHT22;36852;45.466;11.066;2023-11-21T06:48:13;11.10;99.90
23347;DHT22;36852;45.466;11.066;2023-11-21T06:50:42;11.10;99.90
23347;DHT22;36852;45.466;11.066;2023-11-21T06:53:13;11.10;99.90
23347;DHT22;36852;45.466;11.066;2023-11-21T06:55:40;11.10;99.90
23347;DHT22;36852;45.466;11.066;2023-11-21T06:58:09;11.00;99.90
23347;DHT22;36852;45.466;11.066;2023-11-21T07:00:36;11.10;99.90
23347;DHT22;36852;45.466;11.066;2023-11-21T07:03:05;11.10;99.90
23347;DHT22;36852;45.466;11.066;2023-11-21T07:05:33;11.10;99.90
23347;DHT22;36852;45.466;11.066;2023-11-21T07:08:01;11.10;99.90
23347;DHT22;36852;45.466;11.066;2023-11-21T07:10:38;11.10;99.90
23347;DHT22;36852;45.466;11.066;2023-11-21T07:13:06;11.20;99.90
23347;DHT22;36852;45.466;11.066;2023-11-21T07:15:34;11.10;99.90
23347;DHT22;36852;45.466;11.066;2023-11-21T07:18:02;11.10;99.90
23347;DHT22;36852;45.466;11.066;2023-11-21T07:20:35;11.10;99.90
23347;DHT22;36852;45.466;11.066;2023-11-21T07:23:03;11.10;99.90
23347;DHT22;36852;45.466;11.066;2023-11-21T07:25:32;11.10;99.90
23347;DHT22;36852;45.466;11.066;2023-11-21T07:28:04;11.10;99.90
23347;DHT22;36852;45.466;11.066;2023-11-21T07:30:33;11.10;99.90
23347;DHT22;36852;45.466;11.066;2023-11-21T07:33:02;11.20;99.90
23347;DHT22;36852;45.466;11.066;2023-11-21T07:35:50;11.20;99.90
23347;DHT22;36852;45.466;11.066;2023-11-21T07:38:22;11.10;99.90
23347;DHT22;36852;45.466;11.066;2023-11-21T07:40:50;11.10;99.90
23347;DHT22;36852;45.466;11.066;2023-11-21T07:43:18;11.10;99.90
23347;DHT22;36852;45.466;11.066;2023-11-21T07:45:48;11.10;99.90
23347;DHT22;36852;45.466;11.066;2023-11-21T07:48:16;11.10;99.90
23347;DHT22;36852;45.466;11.066;2023-11-21T07:50:45;11.20;99.90
23347;DHT22;36852;45.466;11.066;2023-11-21T07:53:19;11.20;99.90
23347;DHT22;36852;45.466;11.066;2023-11-21T07:55:59;11.20;99.90
23347;DHT22;36852;45.466;11.066;2023-11-21T07:58:28;11.30;99.90
23347;DHT22;36852;45.466;11.066;2023-11-21T08:00:56;11.30;99.90
23347;DHT22;36852;45.466;11.066;2023-11-21T08:03:26;11.30;99.90
23347;DHT22;36852;45.466;11.066;2023-11-21T08:06:05;11.30;99.90
23347;DHT22;36852;45.466;11.066;2023-11-21T08:08:32;11.30;99.90
23347;DHT22;36852;45.466;11.066;2023-11-21T08:11:00;11.30;99.90
23347;DHT22;36852;45.466;11.066;2023-11-21T08:13:29;11.30;99.90
23347;DHT22;36852;45.466;11.066;2023-11-21T08:16:03;11.30;99.90
23347;DHT22;36852;45.466;11.066;2023-11-21T08:18:32;11.40;99.90
23347;DHT22;36852;45.466;11.066;2023-11-21T08:21:01;11.40;99.90
23347;DHT22;36852;45.466;11.066;2023-11-21T08:23:30;11.40;99.90
23347;DHT22;36852;45.466;11.066;2023-11-21T08:26:00;11.50;99.90
23347;DHT22;36852;45.466;11.066;2023-11-21T08:28:31;11.50;99.90
23347;DHT22;36852;45.466;11.066;2023-11-21T08:31:01;11.60;99.90
23347;DHT22;36852;45.466;11.066;2023-11-21T08:33:30;11.70;99.90
23347;DHT22;36852;45.466;11.066;2023-11-21T08:35:58;11.70;99.90
23347;DHT22;36852;45.466;11.066;2023-11-21T08:38:29;11.80;99.90
23347;DHT22;36852;45.466;11.066;2023-11-21T08:40:57;11.90;99.90
23347;DHT22;36852;45.466;11.066;2023-11-21T08:43:25;12.00;99.90
23347;DHT22;36852;45.466;11.066;2023-11-21T08:45:54;12.10;99.90
23347;DHT22;36852;45.466;11.066;2023-11-21T08:48:22;12.10;99.90
23347;DHT22;36852;45.466;11.066;2023-11-21T08:50:51;12.20;99.90
23347;DHT22;36852;45.466;11.066;2023-11-21T08:53:19;12.30;99.90
23347;DHT22;36852;45.466;11.066;2023-11-21T08:55:47;12.40;99.90
23347;DHT22;36852;45.466;11.066;2023-11-21T08:58:17;12.40;99.90
23347;DHT22;36852;45.466;11.066;2023-11-21T09:00:46;12.50;99.90
23347;DHT22;36852;45.466;11.066;2023-11-21T09:03:14;12.50;99.90
23347;DHT22;36852;45.466;11.066;2023-11-21T09:05:42;12.50;99.90
23347;DHT22;36852;45.466;11.066;2023-11-21T09:08:13;12.60;99.90
23347;DHT22;36852;45.466;11.066;2023-11-21T09:10:41;12.60;99.90
23347;DHT22;36852;45.466;11.066;2023-11-21T09:13:11;12.60;99.90
23347;DHT22;36852;45.466;11.066;2023-11-21T09:15:40;12.70;99.90
23347;DHT22;36852;45.466;11.066;2023-11-21T09:18:08;12.70;99.90
23347;DHT22;36852;45.466;11.066;2023-11-21T09:20:36;12.70;99.90
23347;DHT22;36852;45.466;11.066;2023-11-21T09:23:04;12.70;99.90
23347;DHT22;36852;45.466;11.066;2023-11-21T09:25:32;12.80;99.90
23347;DHT22;36852;45.466;11.066;2023-11-21T09:28:00;12.80;99.90
23347;DHT22;36852;45.466;11.066;2023-11-21T09:30:28;12.80;99.90
23347;DHT22;36852;45.466;11.066;2023-11-21T09:32:58;12.80;99.90
23347;DHT22;36852;45.466;11.066;2023-11-21T09:35:26;12.80;99.90
23347;DHT22;36852;45.466;11.066;2023-11-21T09:37:55;12.80;99.90
23347;DHT22;36852;45.466;11.066;2023-11-21T09:40:24;12.90;99.90
23347;DHT22;36852;45.466;11.066;2023-11-21T09:42:56;12.90;99.90
23347;DHT22;36852;45.466;11.066;2023-11-21T09:47:58;12.90;99.90
23347;DHT22;36852;45.466;11.066;2023-11-21T09:50:27;12.90;99.90
23347;DHT22;36852;45.466;11.066;2023-11-21T09:55:44;13.00;99.90
23347;DHT22;36852;45.466;11.066;2023-11-21T09:58:13;13.00;99.90
23347;DHT22;36852;45.466;11.066;2023-11-21T10:00:46;13.00;99.90
23347;DHT22;36852;45.466;11.066;2023-11-21T10:03:15;13.00;99.90
23347;DHT22;36852;45.466;11.066;2023-11-21T10:05:43;13.10;99.90
23347;DHT22;36852;45.466;11.066;2023-11-21T10:08:14;13.00;99.90
23347;DHT22;36852;45.466;11.066;2023-11-21T10:10:44;13.00;99.90
23347;DHT22;36852;45.466;11.066;2023-11-21T10:13:18;13.00;99.90
23347;DHT22;36852;45.466;11.066;2023-11-21T10:15:49;13.00;99.90
23347;DHT22;36852;45.466;11.066;2023-11-21T10:18:18;12.90;99.90
23347;DHT22;36852;45.466;11.066;2023-11-21T10:20:47;12.80;99.90
23347;DHT22;36852;45.466;11.066;2023-11-21T10:23:19;12.80;99.90
23347;DHT22;36852;45.466;11.066;2023-11-21T10:25:50;12.90;99.90
23347;DHT22;36852;45.466;11.066;2023-11-21T10:28:19;12.90;99.90
23347;DHT22;36852;45.466;11.066;2023-11-21T10:30:51;12.90;99.90
23347;DHT22;36852;45.466;11.066;2023-11-21T10:33:28;12.90;99.90
23347;DHT22;36852;45.466;11.066;2023-11-21T10:35:54;12.90;99.90
23347;DHT22;36852;45.466;11.066;2023-11-21T10:38:22;12.90;99.90
23347;DHT22;36852;45.466;11.066;2023-11-21T10:40:52;12.90;99.90
23347;DHT22;36852;45.466;11.066;2023-11-21T10:43:21;12.80;99.90
23347;DHT22;36852;45.466;11.066;2023-11-21T10:45:50;12.80;99.90
23347;DHT22;36852;45.466;11.066;2023-11-21T10:48:18;12.80;99.90
23347;DHT22;36852;45.466;11.066;2023-11-21T10:50:46;12.80;99.90
23347;DHT22;36852;45.466;11.066;2023-11-21T10:53:15;12.80;99.90
23347;DHT22;36852;45.466;11.066;2023-11-21T10:55:43;12.80;99.90
23347;DHT22;36852;45.466;11.066;2023-11-21T10:58:14;12.80;99.90
23347;DHT22;36852;45.466;11.066;2023-11-21T11:00:43;12.80;99.90
23347;DHT22;36852;45.466;11.066;2023-11-21T11:03:13;12.80;99.90
23347;DHT22;36852;45.466;11.066;2023-11-21T11:05:44;12.90;99.90
23347;DHT22;36852;45.466;11.066;2023-11-21T11:08:18;12.80;99.90
23347;DHT22;36852;45.466;11.066;2023-11-21T11:10:51;12.90;99.90
23347;DHT22;36852;45.466;11.066;2023-11-21T11:13:20;12.80;99.90
23347;DHT22;36852;45.466;11.066;2023-11-21T11:15:49;12.80;99.90
23347;DHT22;36852;45.466;11.066;2023-11-21T11:18:18;12.80;99.90
23347;DHT22;36852;45.466;11.066;2023-11-21T11:20:52;12.70;99.90
23347;DHT22;36852;45.466;11.066;2023-11-21T11:23:32;12.70;99.90
23347;DHT22;36852;45.466;11.066;2023-11-21T11:26:07;12.60;99.90
23347;DHT22;36852;45.466;11.066;2023-11-21T11:31:33;12.50;99.90
23347;DHT22;36852;45.466;11.066;2023-11-21T11:34:23;12.50;99.90
23347;DHT22;36852;45.466;11.066;2023-11-21T11:37:02;12.50;99.90
23347;DHT22;36852;45.466;11.066;2023-11-21T11:39:36;12.50;99.90
23347;DHT22;36852;45.466;11.066;2023-11-21T11:42:07;12.50;99.90
23347;DHT22;36852;45.466;11.066;2023-11-21T11:47:15;12.50;99.90
23347;DHT22;36852;45.466;11.066;2023-11-21T11:52:38;12.60;99.90
23347;DHT22;36852;45.466;11.066;2023-11-21T11:55:14;12.60;99.90
23347;DHT22;36852;45.466;11.066;2023-11-21T11:57:40;12.60;99.90
23347;DHT22;36852;45.466;11.066;2023-11-21T12:00:14;12.70;99.90
23347;DHT22;36852;45.466;11.066;2023-11-21T12:02:45;12.80;99.90
23347;DHT22;36852;45.466;11.066;2023-11-21T12:05:18;12.80;99.90
23347;DHT22;36852;45.466;11.066;2023-11-21T12:07:52;12.80;99.90
23347;DHT22;36852;45.466;11.066;2023-11-21T12:10:23;12.90;99.90
23347;DHT22;36852;45.466;11.066;2023-11-21T12:12:59;12.90;99.90
23347;DHT22;36852;45.466;11.066;2023-11-21T12:15:27;13.00;99.90
23347;DHT22;36852;45.466;11.066;2023-11-21T12:17:59;13.00;99.90
23347;DHT22;36852;45.466;11.066;2023-11-21T12:20:28;13.10;99.90
23347;DHT22;36852;45.466;11.066;2023-11-21T12:22:58;13.10;99.90
23347;DHT22;36852;45.466;11.066;2023-11-21T12:25:29;13.20;99.90
23347;DHT22;36852;45.466;11.066;2023-11-21T12:28:00;13.20;99.90
23347;DHT22;36852;45.466;11.066;2023-11-21T12:30:30;13.20;99.90
23347;DHT22;36852;45.466;11.066;2023-11-21T12:33:06;13.20;99.90
23347;DHT22;36852;45.466;11.066;2023-11-21T12:35:37;13.20;99.90
23347;DHT22;36852;45.466;11.066;2023-11-21T12:38:06;13.30;99.90
23347;DHT22;36852;45.466;11.066;2023-11-21T12:40:34;13.30;99.90
23347;DHT22;36852;45.466;11.066;2023-11-21T12:43:02;13.40;99.90
23347;DHT22;36852;45.466;11.066;2023-11-21T12:45:32;13.50;99.90
23347;DHT22;36852;45.466;11.066;2023-11-21T12:48:03;13.50;99.90
23347;DHT22;36852;45.466;11.066;2023-11-21T12:50:34;13.60;99.90
23347;DHT22;36852;45.466;11.066;2023-11-21T12:53:09;13.60;99.90
23347;DHT22;36852;45.466;11.066;2023-11-21T12:55:38;13.70;99.90
23347;DHT22;36852;45.466;11.066;2023-11-21T12:58:08;13.70;99.90
23347;DHT22;36852;45.466;11.066;2023-11-21T13:00:43;13.80;99.90
23347;DHT22;36852;45.466;11.066;2023-11-21T13:03:14;13.80;99.90
23347;DHT22;36852;45.466;11.066;2023-11-21T13:05:48;13.80;99.90
23347;DHT22;36852;45.466;11.066;2023-11-21T13:08:22;13.80;99.90
23347;DHT22;36852;45.466;11.066;2023-11-21T13:10:54;13.80;99.90
23347;DHT22;36852;45.466;11.066;2023-11-21T13:13:24;13.80;99.90
23347;DHT22;36852;45.466;11.066;2023-11-21T13:15:55;13.80;99.90
23347;DHT22;36852;45.466;11.066;2023-11-21T13:18:24;13.90;99.90
23347;DHT22;36852;45.466;11.066;2023-11-21T13:20:55;13.90;99.90
23347;DHT22;36852;45.466;11.066;2023-11-21T13:23:25;13.90;99.90
23347;DHT22;36852;45.466;11.066;2023-11-21T13:25:53;13.90;99.90
23347;DHT22;36852;45.466;11.066;2023-11-21T13:28:23;13.90;99.90
23347;DHT22;36852;45.466;11.066;2023-11-21T13:30:53;13.90;99.90
23347;DHT22;36852;45.466;11.066;2023-11-21T13:33:21;13.90;99.90
23347;DHT22;36852;45.466;11.066;2023-11-21T13:35:52;13.80;99.90
23347;DHT22;36852;45.466;11.066;2023-11-21T13:38:22;13.90;99.90
23347;DHT22;36852;45.466;11.066;2023-11-21T13:40:52;13.90;99.90
23347;DHT22;36852;45.466;11.066;2023-11-21T13:43:23;13.90;99.90
23347;DHT22;36852;45.466;11.066;2023-11-21T13:45:53;13.90;99.90
23347;DHT22;36852;45.466;11.066;2023-11-21T13:48:29;13.90;99.90
23347;DHT22;36852;45.466;11.066;2023-11-21T13:51:02;13.90;99.90
23347;DHT22;36852;45.466;11.066;2023-11-21T13:53:39;13.90;99.90
23347;DHT22;36852;45.466;11.066;2023-11-21T13:56:09;13.90;99.90
23347;DHT22;36852;45.466;11.066;2023-11-21T13:58:36;13.90;99.90
23347;DHT22;36852;45.466;11.066;2023-11-21T14:01:26;13.90;99.90
23347;DHT22;36852;45.466;11.066;2023-11-21T14:04:03;13.90;99.90
23347;DHT22;36852;45.466;11.066;2023-11-21T14:06:38;13.90;99.90
23347;DHT22;36852;45.466;11.066;2023-11-21T14:09:08;13.80;99.90
23347;DHT22;36852;45.466;11.066;2023-11-21T14:11:37;13.90;99.90
23347;DHT22;36852;45.466;11.066;2023-11-21T14:14:07;13.90;99.90
23347;DHT22;36852;45.466;11.066;2023-11-21T14:16:37;13.90;99.90
23347;DHT22;36852;45.466;11.066;2023-11-21T14:19:06;13.90;99.90
23347;DHT22;36852;45.466;11.066;2023-11-21T14:21:35;13.90;99.90
23347;DHT22;36852;45.466;11.066;2023-11-21T14:24:04;13.90;99.90
23347;DHT22;36852;45.466;11.066;2023-11-21T14:26:34;13.90;99.90
23347;DHT22;36852;45.466;11.066;2023-11-21T14:29:02;14.00;99.90
23347;DHT22;36852;45.466;11.066;2023-11-21T14:31:31;13.90;99.90
23347;DHT22;36852;45.466;11.066;2023-11-21T14:34:00;14.00;99.90
23347;DHT22;36852;45.466;11.066;2023-11-21T14:36:33;13.90;99.90
23347;DHT22;36852;45.466;11.066;2023-11-21T14:39:01;13.90;99.90
23347;DHT22;36852;45.466;11.066;2023-11-21T14:41:29;13.90;99.90
23347;DHT22;36852;45.466;11.066;2023-11-21T14:43:57;13.90;99.90
23347;DHT22;36852;45.466;11.066;2023-11-21T14:46:25;13.90;99.90
23347;DHT22;36852;45.466;11.066;2023-11-21T14:48:54;13.90;99.90
23347;DHT22;36852;45.466;11.066;2023-11-21T14:51:32;13.90;99.90
23347;DHT22;36852;45.466;11.066;2023-11-21T14:54:02;13.90;99.90
23347;DHT22;36852;45.466;11.066;2023-11-21T14:56:33;13.90;99.90
23347;DHT22;36852;45.466;11.066;2023-11-21T14:59:03;13.80;99.90
23347;DHT22;36852;45.466;11.066;2023-11-21T15:01:35;13.80;99.90
23347;DHT22;36852;45.466;11.066;2023-11-21T15:04:16;13.80;99.90
23347;DHT22;36852;45.466;11.066;2023-11-21T15:06:57;13.80;99.90
23347;DHT22;36852;45.466;11.066;2023-11-21T15:09:26;13.80;99.90
23347;DHT22;36852;45.466;11.066;2023-11-21T15:12:03;13.80;99.90
23347;DHT22;36852;45.466;11.066;2023-11-21T15:14:33;13.80;99.90
23347;DHT22;36852;45.466;11.066;2023-11-21T15:17:05;13.70;99.90
23347;DHT22;36852;45.466;11.066;2023-11-21T15:19:35;13.70;99.90
23347;DHT22;36852;45.466;11.066;2023-11-21T15:22:03;13.70;99.90
23347;DHT22;36852;45.466;11.066;2023-11-21T15:24:31;13.70;99.90
23347;DHT22;36852;45.466;11.066;2023-11-21T15:27:00;13.80;99.90
23347;DHT22;36852;45.466;11.066;2023-11-21T15:29:30;13.70;99.90
23347;DHT22;36852;45.466;11.066;2023-11-21T15:31:59;13.70;99.90
23347;DHT22;36852;45.466;11.066;2023-11-21T15:34:27;13.70;99.90
23347;DHT22;36852;45.466;11.066;2023-11-21T15:36:57;13.70;99.90
23347;DHT22;36852;45.466;11.066;2023-11-21T15:39:35;13.70;99.90
23347;DHT22;36852;45.466;11.066;2023-11-21T15:42:04;13.70;99.90
23347;DHT22;36852;45.466;11.066;2023-11-21T15:44:37;13.60;99.90